Charleston, Illinois
Current Conditions -  °F | °C
As of 11:53 PM on Saturday 22 Nov 2014 (Local Time) from KMTO Reporting Station
Light Rain Light Rain  
Wind Chill: 50°   Ceiling: 9500
Heat Index: 50°   Visibility: 10mi
Dew Point: 43°   Wind: 12mph
Humidity: 77%   Direction: 160°SSE
Pressure: 29.91"   Gusts: NA
Location:  39.5°N, 88.18°W
Report Text: KMTO 230553Z AUTO 16010KT 10SM -RA OVC095 10/06 A2991 RMK AO2 SLP129 P0000 60006 T01000061 10128 20094 401390017 56018
Loading
Personal Weather Stations






























Interactive Weather Map New forecast layout! Learn more

10-Day Weather Forecast

Advertisements
Track Severe Weather on mobile